Taichung Ching Chuang Kang Airport
RCMQ : now visible

Airfield :











YOU CAN JOIN US ON...

 
LOGIN :

Register | Disclaimer

   EN    FR    IT 

 









Legend :    VFR   Marginal VFR   IFR   Intensive IFR   Very Intensive IFR
Visi :
Ceiling :
>= 8 km
>= 3000ft
5 to 8 km
1000 to 3000 ft
1500m to 5 km
500 to 1000 ft
800 to 1500m
200 to 500 ft
< 800m
< 200 ft
Symbols :   Thunderstorms  Fog  Heavy snow  Heavy precipitations  Wind > 20 kt







- Airport Elevation : 663 ft
- IATA code : RMQ


RCMQ - Taichung Ching Chuang Kang

CURRENT METAR :
  • 202000Z 16004KT 9000 FEW010 SCT025 BKN050 25/24 Q1005 RMK A2969

EXPIRED METARs :
  • 201900Z 15002KT 9000 FEW010 SCT025 BKN050 26/24 Q1005 RMK A2968
  • 201800Z 15003KT 9999 FEW010 SCT025 BKN050 25/25 Q1005 RMK A2969

TAF TAF RCMQ
Valid from the 20 at 18:00 until the 21 at 18:00 UTC


201700Z 2018/2118 18004KT 9999 FEW010 SCT025 BKN060 TX31/2106Z TN26/2021Z
BECMG 2102/2105 36006KT
BECMG 2106/2108 7000 -RA FEW008 BKN020 BKN040
BECMG 2109/2111 9999 FEW010 BKN030 BKN060
BECMG 2113/2116 FEW010 SCT025 BKN060
No reported NOTAMs for that airfield.



MET'MAP, your aeronautical weather chart ! - Copyright ORBIFLY December 2007 - Disclaimer

ORBIFLY MET'MAP TEAM :

Programming & Development : Alexandra Zaïnal
Concept & Development : Baudouin d'Aumeries
Co-Development & Prog : Marc-Olivier Méhu
Technical & hardware support : Manuel Goepfert

Contact : metmap@orbifly.com




SOURCES & CREDITS :

   NOAA       Earth
Advisory